createdAt,value
2018-06-08T00:01:51.762Z,0.00
2018-06-08T00:02:51.772Z,0.00
2018-06-08T00:04:44.730Z,0.00
2018-06-08T00:05:44.730Z,0.00
2018-06-08T00:07:37.673Z,0.00
2018-06-08T00:08:37.683Z,0.00
2018-06-08T00:10:30.657Z,0.00
2018-06-08T00:11:30.639Z,0.00
2018-06-08T00:13:23.587Z,0.00
2018-06-08T00:14:23.595Z,0.00
2018-06-08T00:16:16.564Z,0.00
2018-06-08T00:17:16.552Z,0.00
2018-06-08T00:19:09.524Z,0.00
2018-06-08T00:20:09.512Z,0.00
2018-06-08T00:22:02.450Z,0.00
2018-06-08T00:23:02.466Z,0.00
2018-06-08T00:24:55.432Z,0.00
2018-06-08T00:25:55.422Z,0.00
2018-06-08T00:27:48.359Z,0.00
2018-06-08T00:28:48.372Z,0.00
2018-06-08T00:30:41.332Z,0.00
2018-06-08T00:31:41.329Z,0.00
2018-06-08T00:33:34.268Z,0.00
2018-06-08T00:34:34.283Z,0.00
2018-06-08T00:36:27.239Z,0.00
2018-06-08T00:37:27.235Z,0.00
2018-06-08T00:39:20.196Z,0.00
2018-06-08T00:40:20.191Z,0.00
2018-06-08T00:42:13.132Z,0.00
2018-06-08T00:43:13.150Z,0.00
2018-06-08T00:45:06.107Z,0.00
2018-06-08T00:46:06.108Z,0.00
2018-06-08T00:47:59.054Z,0.00
2018-06-08T00:48:59.072Z,0.00
2018-06-08T00:50:52.048Z,0.00
2018-06-08T00:51:52.027Z,0.00
2018-06-08T00:53:44.964Z,0.00
2018-06-08T00:54:44.978Z,0.00
2018-06-08T00:56:37.946Z,0.00
2018-06-08T00:57:37.930Z,0.00
2018-06-08T00:59:30.886Z,0.00
2018-06-08T01:00:30.886Z,0.00
2018-06-08T01:02:23.828Z,0.00
2018-06-08T01:03:23.843Z,0.00
2018-06-08T01:05:16.814Z,0.00
2018-06-08T01:06:16.803Z,0.00
2018-06-08T01:08:09.749Z,0.00
2018-06-08T01:09:09.760Z,0.00
2018-06-08T01:11:02.729Z,0.00
2018-06-08T01:12:02.710Z,0.00
2018-06-08T01:13:55.667Z,0.00
2018-06-08T01:14:55.675Z,0.00
2018-06-08T01:16:48.634Z,0.00
2018-06-08T01:17:48.628Z,0.00
2018-06-08T01:19:41.591Z,0.00
2018-06-08T01:20:41.578Z,0.00
2018-06-08T01:22:34.550Z,0.00
2018-06-08T01:23:34.535Z,0.00
2018-06-08T01:25:27.500Z,0.00
2018-06-08T01:26:27.489Z,0.00
2018-06-08T01:28:20.432Z,0.00
2018-06-08T01:29:20.443Z,0.00
2018-06-08T01:31:13.411Z,0.00
2018-06-08T01:32:13.405Z,0.00
2018-06-08T01:34:06.344Z,0.00
2018-06-08T01:35:06.355Z,0.00
2018-06-08T01:36:59.314Z,0.00
2018-06-08T01:37:59.319Z,0.00
2018-06-08T01:39:52.269Z,0.00
2018-06-08T01:40:52.265Z,0.00
2018-06-08T01:42:45.201Z,0.00
2018-06-08T01:43:45.217Z,0.00
2018-06-08T01:45:38.168Z,0.00
2018-06-08T01:46:38.166Z,0.00
2018-06-08T01:48:31.598Z,0.00
2018-06-08T03:48:28.302Z,0.00
2018-06-08T03:49:28.285Z,0.00
2018-06-08T03:51:21.232Z,0.00
2018-06-08T03:52:21.227Z,0.00
2018-06-08T03:54:14.149Z,0.00
2018-06-08T03:55:14.160Z,0.00
2018-06-08T03:57:07.106Z,0.00
2018-06-08T03:58:07.105Z,0.00
2018-06-08T04:00:00.029Z,0.00
2018-06-08T04:01:00.053Z,5.63
2018-06-08T04:02:53.001Z,5.63
2018-06-08T04:03:52.993Z,5.63
2018-06-08T04:05:45.923Z,5.63
2018-06-08T04:06:45.933Z,5.63
2018-06-08T04:08:38.884Z,5.63
2018-06-08T04:09:38.880Z,5.63
2018-06-08T04:11:31.843Z,5.63
2018-06-08T04:12:31.830Z,5.63
2018-06-08T04:14:24.791Z,5.63
2018-06-08T04:15:24.767Z,5.63
2018-06-08T04:17:17.735Z,11.25
2018-06-08T04:18:17.723Z,11.25
2018-06-08T04:20:10.663Z,11.25
2018-06-08T04:21:10.673Z,11.25
2018-06-08T04:23:03.633Z,11.25
2018-06-08T04:24:03.628Z,11.25
2018-06-08T04:25:56.573Z,11.25
2018-06-08T04:26:56.587Z,11.25
2018-06-08T04:28:49.546Z,11.25
2018-06-08T04:29:49.540Z,11.25
2018-06-08T04:31:42.511Z,11.25
2018-06-08T04:32:42.506Z,11.25
2018-06-08T04:34:35.443Z,11.25
2018-06-08T04:35:35.451Z,11.25
2018-06-08T04:37:28.424Z,16.88
2018-06-08T04:38:28.405Z,16.88
2018-06-08T04:40:21.397Z,16.88
2018-06-08T04:41:21.364Z,16.88
2018-06-08T04:43:14.318Z,16.88
2018-06-08T04:44:14.318Z,16.88
2018-06-08T04:46:07.254Z,16.88
2018-06-08T04:47:07.274Z,16.88
2018-06-08T04:49:00.235Z,11.25
2018-06-08T04:50:00.228Z,11.25
2018-06-08T04:51:53.191Z,11.25
2018-06-08T04:52:53.192Z,16.88
2018-06-08T04:54:46.135Z,16.88
2018-06-08T04:55:46.160Z,16.88
2018-06-08T04:57:39.107Z,22.50
2018-06-08T04:58:39.098Z,22.50
2018-06-08T05:00:32.039Z,22.50
2018-06-08T05:01:32.061Z,22.50
2018-06-08T05:03:25.013Z,22.50
2018-06-08T05:04:25.012Z,28.13
2018-06-08T05:06:18.010Z,28.13
2018-06-08T05:07:18.010Z,33.75
2018-06-08T05:09:10.984Z,39.38
2018-06-08T05:10:10.976Z,39.38
2018-06-08T05:12:03.922Z,39.38
2018-06-08T05:13:03.917Z,45.00
2018-06-08T05:14:56.853Z,45.00
2018-06-08T05:15:56.871Z,45.00
2018-06-08T05:17:49.836Z,50.63
2018-06-08T05:18:49.836Z,50.63
2018-06-08T05:20:42.762Z,50.63
2018-06-08T05:21:42.774Z,50.63
2018-06-08T05:23:35.735Z,50.63
2018-06-08T05:24:35.730Z,50.63
2018-06-08T05:26:28.691Z,56.25
2018-06-08T05:27:28.695Z,56.25
2018-06-08T05:29:21.662Z,61.88
2018-06-08T05:30:21.650Z,67.50
2018-06-08T05:32:14.639Z,67.50
2018-06-08T05:33:14.610Z,67.50
2018-06-08T05:35:07.643Z,67.50
2018-06-08T05:36:07.690Z,67.50
2018-06-08T05:38:00.626Z,73.13
2018-06-08T05:39:00.617Z,61.88
2018-06-08T05:40:53.664Z,61.88
2018-06-08T05:41:53.675Z,56.25
2018-06-08T05:43:46.745Z,56.25
2018-06-08T05:44:46.732Z,50.63
2018-06-08T05:46:39.686Z,50.63
2018-06-08T05:47:39.703Z,50.63
2018-06-08T05:49:32.656Z,45.00
2018-06-08T05:50:32.653Z,45.00
2018-06-08T05:52:25.614Z,45.00
2018-06-08T05:53:25.615Z,39.38
2018-06-08T05:55:18.550Z,39.38
2018-06-08T05:56:18.563Z,39.38
2018-06-08T05:58:11.524Z,33.75
2018-06-08T05:59:11.517Z,28.13
2018-06-08T06:01:04.482Z,28.13
2018-06-08T06:02:04.483Z,28.13
2018-06-08T06:03:57.444Z,22.50
2018-06-08T06:04:57.452Z,22.50
2018-06-08T06:06:50.370Z,28.13
2018-06-08T06:07:50.396Z,28.13
2018-06-08T06:09:43.431Z,33.75
2018-06-08T06:10:43.393Z,33.75
2018-06-08T06:12:36.445Z,33.75
2018-06-08T06:13:36.452Z,33.75
2018-06-08T06:15:29.486Z,45.00
2018-06-08T06:16:29.498Z,45.00
2018-06-08T06:18:22.565Z,50.63
2018-06-08T06:19:22.554Z,56.25
2018-06-08T06:21:15.594Z,67.50
2018-06-08T06:22:15.609Z,67.50
2018-06-08T06:24:08.669Z,78.75
2018-06-08T06:25:08.666Z,78.75
2018-06-08T06:27:01.719Z,73.13
2018-06-08T06:28:01.728Z,73.13
2018-06-08T06:29:54.778Z,73.13
2018-06-08T06:30:54.784Z,73.13
2018-06-08T06:32:47.864Z,61.88
2018-06-08T06:33:47.830Z,61.88
2018-06-08T06:35:40.939Z,50.63
2018-06-08T06:36:40.889Z,50.63
2018-06-08T06:38:33.949Z,50.63
2018-06-08T06:39:33.961Z,50.63
2018-06-08T06:41:26.984Z,50.63
2018-06-08T06:42:27.046Z,50.63
2018-06-08T06:44:20.058Z,45.00
2018-06-08T06:45:20.052Z,45.00
2018-06-08T06:47:13.357Z,45.00
2018-06-08T06:48:13.111Z,45.00
2018-06-08T06:50:06.168Z,45.00
2018-06-08T06:51:06.172Z,39.38
2018-06-08T06:52:59.211Z,39.38
2018-06-08T06:53:59.227Z,39.38
2018-06-08T06:55:52.276Z,39.38
2018-06-08T06:56:52.276Z,39.38
2018-06-08T06:58:45.413Z,33.75
2018-06-08T06:59:45.350Z,33.75
2018-06-08T07:01:38.376Z,33.75
2018-06-08T07:02:38.385Z,33.75
2018-06-08T07:04:31.556Z,33.75
2018-06-08T07:05:31.441Z,33.75
2018-06-08T07:07:24.481Z,28.13
2018-06-08T07:08:24.497Z,28.13
2018-06-08T07:10:17.553Z,33.75
2018-06-08T07:11:17.612Z,33.75
2018-06-08T07:13:10.592Z,33.75
2018-06-08T07:14:10.616Z,33.75
2018-06-08T07:16:03.676Z,33.75
2018-06-08T07:17:03.663Z,33.75
2018-06-08T07:18:56.725Z,39.38
2018-06-08T07:19:56.725Z,45.00
2018-06-08T07:21:49.800Z,50.63
2018-06-08T07:22:49.801Z,56.25
2018-06-08T07:24:42.874Z,61.88
2018-06-08T07:25:42.979Z,73.13
2018-06-08T07:27:35.878Z,73.13
2018-06-08T07:28:35.891Z,73.13
2018-06-08T07:30:28.944Z,84.38
2018-06-08T07:31:28.951Z,84.38
2018-06-08T07:33:22.018Z,84.38
2018-06-08T07:34:22.010Z,84.38
2018-06-08T07:36:15.060Z,73.13
2018-06-08T07:37:15.078Z,67.50
2018-06-08T07:39:08.119Z,56.25
2018-06-08T07:40:08.202Z,45.00
2018-06-08T07:42:01.171Z,45.00
2018-06-08T07:43:01.165Z,45.00
2018-06-08T07:44:54.237Z,45.00
2018-06-08T07:45:54.218Z,45.00
2018-06-08T07:47:47.159Z,45.00
2018-06-08T07:48:47.172Z,45.00
2018-06-08T07:50:40.135Z,45.00
2018-06-08T07:51:40.127Z,45.00
2018-06-08T07:53:33.074Z,39.38
2018-06-08T07:54:33.089Z,45.00
2018-06-08T07:56:26.038Z,45.00
2018-06-08T07:57:26.035Z,45.00
2018-06-08T07:59:18.979Z,45.00
2018-06-08T08:00:18.995Z,45.00
2018-06-08T08:02:11.952Z,45.00
2018-06-08T08:03:11.945Z,45.00
2018-06-08T08:05:04.995Z,39.38
2018-06-08T08:06:04.993Z,39.38
2018-06-08T08:07:58.043Z,39.38
2018-06-08T08:08:58.048Z,39.38
2018-06-08T08:10:51.118Z,33.75
2018-06-08T08:11:51.113Z,33.75
2018-06-08T08:13:44.063Z,45.00
2018-06-08T08:14:46.825Z,45.00
2018-06-08T08:16:37.153Z,50.63
2018-06-08T08:17:37.111Z,50.63
2018-06-08T08:19:30.164Z,39.38
2018-06-08T08:20:30.186Z,45.00
2018-06-08T08:22:23.228Z,50.63
2018-06-08T08:23:23.222Z,56.25
2018-06-08T08:25:16.298Z,61.88
2018-06-08T08:26:16.294Z,56.25
2018-06-08T08:28:09.321Z,50.63
2018-06-08T08:29:09.337Z,50.63
2018-06-08T08:31:02.402Z,45.00
2018-06-08T08:32:02.412Z,45.00
2018-06-08T08:33:55.540Z,50.63
2018-06-08T08:34:55.449Z,50.63
2018-06-08T08:36:48.520Z,56.25
2018-06-08T08:37:48.504Z,61.88
2018-06-08T08:39:41.591Z,67.50
2018-06-08T08:40:41.556Z,73.13
2018-06-08T08:42:34.782Z,84.38
2018-06-08T08:43:34.647Z,90.00
2018-06-08T08:46:27.698Z,106.88
2018-06-08T08:48:20.715Z,129.38
2018-06-08T08:49:20.730Z,129.38
2018-06-08T08:51:13.949Z,140.63
2018-06-08T08:52:13.790Z,129.38
2018-06-08T08:54:06.831Z,151.88
2018-06-08T08:55:06.874Z,151.88
2018-06-08T08:57:00.015Z,123.75
2018-06-08T08:57:59.893Z,112.50
2018-06-08T08:59:52.999Z,101.25
2018-06-08T09:00:52.953Z,78.75
2018-06-08T09:02:46.078Z,56.25
2018-06-08T09:03:46.031Z,50.63
2018-06-08T09:05:39.098Z,39.38
2018-06-08T09:06:39.059Z,39.38
2018-06-08T09:08:32.095Z,33.75
2018-06-08T09:09:32.129Z,33.75
2018-06-08T09:11:25.234Z,39.38
2018-06-08T09:12:25.166Z,39.38
2018-06-08T09:14:18.208Z,45.00
2018-06-08T09:15:18.218Z,45.00
2018-06-08T09:17:11.281Z,50.63
2018-06-08T09:18:11.279Z,50.63
2018-06-08T09:20:04.337Z,50.63
2018-06-08T09:21:04.332Z,50.63
2018-06-08T09:22:57.392Z,50.63
2018-06-08T09:23:57.391Z,50.63
2018-06-08T09:25:50.461Z,56.25
2018-06-08T09:26:50.452Z,56.25
2018-06-08T09:28:43.495Z,56.25
2018-06-08T09:29:43.511Z,56.25
2018-06-08T09:31:36.560Z,56.25
2018-06-08T09:32:36.554Z,61.88
2018-06-08T09:34:29.598Z,61.88
2018-06-08T09:35:29.609Z,67.50
2018-06-08T09:37:22.667Z,73.13
2018-06-08T09:38:22.665Z,78.75
2018-06-08T09:40:15.605Z,78.75
2018-06-08T09:41:15.620Z,84.38
2018-06-08T09:43:08.587Z,84.38
2018-06-08T09:44:08.574Z,84.38
2018-06-08T09:46:01.535Z,84.38
2018-06-08T09:47:01.533Z,78.75
2018-06-08T09:48:54.495Z,78.75
2018-06-08T09:49:54.483Z,73.13
2018-06-08T09:51:47.578Z,67.50
2018-06-08T09:52:47.623Z,67.50
2018-06-08T09:54:41.018Z,73.13
2018-06-08T09:55:41.005Z,73.13
2018-06-08T09:57:34.062Z,73.13
2018-06-08T09:58:34.057Z,78.75
2018-06-08T10:00:27.118Z,90.00
2018-06-08T10:01:27.120Z,90.00
2018-06-08T10:03:20.170Z,112.50
2018-06-08T10:04:20.165Z,123.75
2018-06-08T10:06:13.210Z,135.00
2018-06-08T10:07:13.241Z,129.38
2018-06-08T10:09:06.286Z,123.75
2018-06-08T10:10:06.280Z,123.75
2018-06-08T10:11:59.343Z,123.75
2018-06-08T10:12:59.337Z,129.38
2018-06-08T10:14:52.375Z,146.25
2018-06-08T10:15:52.392Z,157.50
2018-06-08T10:17:45.456Z,168.75
2018-06-08T10:18:45.448Z,180.00
2018-06-08T10:20:38.487Z,213.75
2018-06-08T10:21:38.502Z,236.25
2018-06-08T10:23:31.560Z,270.00
2018-06-08T10:24:31.555Z,292.50
2018-06-08T10:26:24.601Z,292.50
2018-06-08T10:27:24.611Z,281.25
2018-06-08T10:29:17.675Z,286.88
2018-06-08T10:30:17.676Z,292.50
2018-06-08T10:32:10.726Z,365.63
2018-06-08T10:33:10.724Z,388.13
2018-06-08T10:35:03.764Z,382.50
2018-06-08T10:36:03.783Z,376.88
2018-06-08T10:37:56.838Z,354.38
2018-06-08T10:38:56.847Z,354.38
2018-06-08T10:40:49.882Z,337.50
2018-06-08T10:41:49.894Z,337.50
2018-06-08T10:43:42.950Z,337.50
2018-06-08T10:44:42.951Z,354.38
2018-06-08T10:46:36.009Z,331.88
2018-06-08T10:47:36.004Z,326.25
2018-06-08T10:49:29.058Z,320.63
2018-06-08T10:50:29.428Z,331.88
2018-06-08T10:52:22.320Z,326.25
2018-06-08T10:53:22.371Z,343.13
2018-06-08T10:55:15.427Z,298.13
2018-06-08T10:56:15.426Z,343.13
2018-06-08T10:58:08.429Z,303.75
2018-06-08T10:59:08.434Z,298.13
2018-06-08T11:01:01.468Z,343.13
2018-06-08T11:02:01.487Z,365.63
2018-06-08T11:03:54.543Z,337.50
2018-06-08T11:04:54.553Z,360.00
2018-06-08T11:06:47.576Z,343.13
2018-06-08T11:07:47.598Z,275.63
2018-06-08T11:09:40.656Z,354.38
2018-06-08T11:10:40.658Z,365.63
2018-06-08T11:12:33.707Z,326.25
2018-06-08T11:13:33.712Z,365.63
2018-06-08T11:15:26.764Z,286.88
2018-06-08T11:16:26.766Z,236.25
2018-06-08T11:18:19.731Z,219.38
2018-06-08T11:19:19.726Z,219.38
2018-06-08T11:21:12.713Z,202.50
2018-06-08T11:22:12.685Z,185.63
2018-06-08T11:24:05.652Z,180.00
2018-06-08T11:25:05.648Z,191.25
2018-06-08T11:26:58.630Z,180.00
2018-06-08T11:27:58.612Z,180.00
2018-06-08T11:29:51.581Z,185.63
2018-06-08T11:30:51.583Z,157.50
2018-06-08T11:32:44.521Z,135.00
2018-06-08T11:33:44.540Z,157.50
2018-06-08T11:35:37.501Z,146.25
2018-06-08T11:36:37.499Z,118.13
2018-06-08T11:38:30.459Z,129.38
2018-06-08T11:39:30.510Z,129.38
2018-06-08T11:41:23.400Z,106.88
2018-06-08T11:42:23.416Z,101.25
2018-06-08T11:44:16.382Z,101.25
2018-06-08T11:45:16.379Z,90.00
2018-06-08T11:47:09.319Z,106.88
2018-06-08T11:48:09.339Z,106.88
2018-06-08T11:50:02.305Z,101.25
2018-06-08T11:51:02.298Z,106.88
2018-06-08T11:52:55.244Z,123.75
2018-06-08T11:53:55.262Z,129.38
2018-06-08T11:55:48.225Z,135.00
2018-06-08T11:56:48.227Z,129.38
2018-06-08T11:58:41.190Z,123.75
2018-06-08T11:59:41.185Z,123.75
2018-06-08T12:01:34.183Z,101.25
2018-06-08T12:02:34.203Z,106.88
2018-06-08T12:04:27.157Z,123.75
2018-06-08T12:05:27.159Z,118.13
2018-06-08T12:07:20.094Z,95.63
2018-06-08T12:08:20.112Z,84.38
2018-06-08T12:10:13.185Z,73.13
2018-06-08T12:11:13.175Z,67.50
2018-06-08T12:13:06.262Z,67.50
2018-06-08T12:14:06.234Z,67.50
2018-06-08T12:15:59.195Z,78.75
2018-06-08T12:16:59.192Z,84.38
2018-06-08T12:18:52.153Z,101.25
2018-06-08T12:19:52.161Z,101.25
2018-06-08T12:21:45.096Z,95.63
2018-06-08T12:22:45.117Z,95.63
2018-06-08T12:24:38.074Z,84.38
2018-06-08T12:25:38.075Z,84.38
2018-06-08T12:27:31.007Z,84.38
2018-06-08T12:28:31.027Z,84.38
2018-06-08T12:30:23.982Z,90.00
2018-06-08T12:31:23.986Z,95.63
2018-06-08T12:33:16.920Z,90.00
2018-06-08T12:34:16.938Z,84.38
2018-06-08T12:36:09.969Z,73.13
2018-06-08T12:37:09.963Z,73.13
2018-06-08T12:39:03.914Z,90.00
2018-06-08T12:40:03.912Z,101.25
2018-06-08T12:41:56.855Z,106.88
2018-06-08T12:42:56.865Z,106.88
2018-06-08T12:44:49.825Z,106.88
2018-06-08T12:45:49.827Z,112.50
2018-06-08T12:47:42.764Z,118.13
2018-06-08T12:48:42.786Z,118.13
2018-06-08T12:50:35.733Z,129.38
2018-06-08T12:51:35.739Z,135.00
2018-06-08T12:53:28.719Z,146.25
2018-06-08T12:54:28.692Z,168.75
2018-06-08T12:56:21.648Z,185.63
2018-06-08T12:57:21.649Z,185.63
2018-06-08T12:59:14.588Z,180.00
2018-06-08T13:00:14.601Z,185.63
2018-06-08T13:02:07.563Z,202.50
2018-06-08T13:03:07.614Z,202.50
2018-06-08T13:05:00.526Z,191.25
2018-06-08T13:06:00.523Z,191.25
2018-06-08T13:07:53.460Z,196.88
2018-06-08T13:08:53.483Z,202.50
2018-06-08T13:10:46.443Z,185.63
2018-06-08T13:11:46.434Z,185.63
2018-06-08T13:13:39.378Z,185.63
2018-06-08T13:14:39.395Z,185.63
2018-06-08T13:16:32.345Z,185.63
2018-06-08T13:17:32.347Z,185.63
2018-06-08T13:19:25.286Z,202.50
2018-06-08T13:20:25.307Z,202.50
2018-06-08T13:22:18.264Z,213.75
2018-06-08T13:23:18.268Z,202.50
2018-06-08T13:25:11.222Z,202.50
2018-06-08T13:26:11.220Z,202.50
2018-06-08T13:28:04.173Z,202.50
2018-06-08T13:29:04.198Z,202.50
2018-06-08T13:30:57.142Z,196.88
2018-06-08T13:31:57.144Z,202.50
2018-06-08T13:33:50.085Z,202.50
2018-06-08T13:34:50.104Z,202.50
2018-06-08T13:36:43.064Z,208.13
2018-06-08T13:37:43.062Z,213.75
2018-06-08T13:39:36.025Z,202.50
2018-06-08T13:40:36.024Z,202.50
2018-06-08T13:42:28.981Z,208.13
2018-06-08T13:43:28.976Z,202.50
2018-06-08T13:45:21.935Z,196.88
2018-06-08T13:46:21.937Z,196.88
2018-06-08T13:48:14.881Z,196.88
2018-06-08T13:49:14.894Z,202.50
2018-06-08T13:51:07.866Z,208.13
2018-06-08T13:52:07.865Z,208.13
2018-06-08T13:54:00.801Z,225.00
2018-06-08T13:55:00.819Z,253.13
2018-06-08T13:56:53.776Z,225.00
2018-06-08T13:57:53.776Z,202.50
2018-06-08T13:59:46.715Z,208.13
2018-06-08T14:00:46.753Z,196.88
2018-06-08T14:02:39.694Z,213.75
2018-06-08T14:03:39.700Z,208.13
2018-06-08T14:05:32.670Z,219.38
2018-06-08T14:06:32.662Z,247.50
2018-06-08T14:08:25.604Z,258.75
2018-06-08T14:09:25.634Z,258.75
2018-06-08T14:11:18.589Z,253.13
2018-06-08T14:12:18.589Z,247.50
2018-06-08T14:14:11.540Z,230.63
2018-06-08T14:15:11.550Z,241.88
2018-06-08T14:17:04.511Z,225.00
2018-06-08T14:18:04.511Z,230.63
2018-06-08T14:19:57.483Z,185.63
2018-06-08T14:20:57.489Z,180.00
2018-06-08T14:22:50.449Z,213.75
2018-06-08T14:23:50.453Z,146.25
2018-06-08T14:25:43.408Z,196.88
2018-06-08T14:26:43.409Z,202.50
2018-06-08T14:28:36.349Z,174.38
2018-06-08T14:29:36.370Z,191.25
2018-06-08T14:31:29.329Z,236.25
2018-06-08T14:32:29.325Z,225.00
2018-06-08T14:34:22.271Z,230.63
2018-06-08T14:35:22.291Z,185.63
2018-06-08T14:37:15.253Z,236.25
2018-06-08T14:38:15.276Z,236.25
2018-06-08T14:40:08.192Z,241.88
2018-06-08T14:41:08.228Z,241.88
2018-06-08T14:43:01.186Z,219.38
2018-06-08T14:44:01.189Z,219.38
2018-06-08T14:45:54.152Z,225.00
2018-06-08T14:46:54.161Z,225.00
2018-06-08T14:48:47.097Z,219.38
2018-06-08T14:49:47.116Z,196.88
2018-06-08T14:51:40.077Z,157.50
2018-06-08T14:52:40.102Z,225.00
2018-06-08T14:54:33.033Z,180.00
2018-06-08T14:55:33.041Z,219.38
2018-06-08T14:57:26.050Z,157.50
2018-06-08T14:58:26.054Z,213.75
2018-06-08T15:00:18.998Z,180.00
2018-06-08T15:01:19.018Z,196.88
2018-06-08T15:03:11.970Z,185.63
2018-06-08T15:04:11.971Z,157.50
2018-06-08T15:06:04.933Z,191.25
2018-06-08T15:07:04.932Z,191.25
2018-06-08T15:08:57.874Z,151.88
2018-06-08T15:09:57.895Z,129.38
2018-06-08T15:11:50.860Z,146.25
2018-06-08T15:12:50.851Z,180.00
2018-06-08T15:14:43.811Z,163.13
2018-06-08T15:15:43.826Z,163.13
2018-06-08T15:17:36.794Z,151.88
2018-06-08T15:18:36.782Z,151.88
2018-06-08T15:20:29.730Z,123.75
2018-06-08T15:21:29.746Z,157.50
2018-06-08T15:23:22.710Z,168.75
2018-06-08T15:24:22.708Z,157.50
2018-06-08T15:26:15.666Z,129.38
2018-06-08T15:27:15.669Z,163.13
2018-06-08T15:29:08.613Z,157.50
2018-06-08T15:30:08.626Z,112.50
2018-06-08T15:32:01.585Z,168.75
2018-06-08T15:33:01.588Z,168.75
2018-06-08T15:34:54.541Z,163.13
2018-06-08T15:35:54.553Z,157.50
2018-06-08T15:37:47.515Z,157.50
2018-06-08T15:38:47.511Z,163.13
2018-06-08T15:40:40.515Z,146.25
2018-06-08T15:41:40.470Z,112.50
2018-06-08T15:43:33.429Z,106.88
2018-06-08T15:44:33.438Z,112.50
2018-06-08T15:46:26.391Z,112.50
2018-06-08T15:47:26.389Z,129.38
2018-06-08T15:49:19.338Z,129.38
2018-06-08T15:50:19.354Z,157.50
2018-06-08T15:52:12.311Z,140.63
2018-06-08T15:53:12.311Z,90.00
2018-06-08T15:55:05.266Z,84.38
2018-06-08T15:56:05.274Z,84.38
2018-06-08T15:57:58.235Z,90.00
2018-06-08T15:58:58.233Z,95.63
2018-06-08T16:00:51.185Z,135.00
2018-06-08T16:01:51.190Z,106.88
2018-06-08T16:03:44.162Z,90.00
2018-06-08T16:04:44.163Z,84.38
2018-06-08T16:06:37.126Z,118.13
2018-06-08T16:07:37.123Z,118.13
2018-06-08T16:09:30.086Z,123.75
2018-06-08T16:10:30.078Z,129.38
2018-06-08T16:12:23.056Z,140.63
2018-06-08T16:13:23.042Z,140.63
2018-06-08T16:15:15.985Z,135.00
2018-06-08T16:16:16.000Z,129.38
2018-06-08T16:18:08.958Z,129.38
2018-06-08T16:19:08.960Z,135.00
2018-06-08T16:21:01.898Z,135.00
2018-06-08T16:22:01.916Z,135.00
2018-06-08T16:23:54.918Z,129.38
2018-06-08T16:24:54.870Z,123.75
2018-06-08T16:26:47.833Z,118.13
2018-06-08T16:27:47.833Z,123.75
2018-06-08T16:29:40.772Z,129.38
2018-06-08T16:30:40.787Z,123.75
2018-06-08T16:32:33.743Z,118.13
2018-06-08T16:33:33.752Z,112.50
2018-06-08T16:35:26.693Z,84.38
2018-06-08T16:36:26.710Z,78.75
2018-06-08T16:38:19.665Z,73.13
2018-06-08T16:39:19.672Z,84.38
2018-06-08T16:41:12.616Z,90.00
2018-06-08T16:42:12.623Z,101.25
2018-06-08T16:44:05.590Z,90.00
2018-06-08T16:45:05.590Z,95.63
2018-06-08T16:46:58.544Z,95.63
2018-06-08T16:47:58.540Z,90.00
2018-06-08T16:49:51.483Z,90.00
2018-06-08T16:50:51.504Z,90.00
2018-06-08T16:52:44.464Z,90.00
2018-06-08T16:53:44.464Z,90.00
2018-06-08T16:55:37.398Z,90.00
2018-06-08T16:56:37.416Z,90.00
2018-06-08T16:58:30.379Z,84.38
2018-06-08T16:59:30.382Z,84.38
2018-06-08T17:01:23.325Z,78.75
2018-06-08T17:02:23.356Z,73.13
2018-06-08T17:04:16.301Z,73.13
2018-06-08T17:05:16.300Z,67.50
2018-06-08T17:07:09.257Z,67.50
2018-06-08T17:08:09.252Z,61.88
2018-06-08T17:10:02.215Z,50.63
2018-06-08T17:11:02.214Z,50.63
2018-06-08T17:12:55.181Z,50.63
2018-06-08T17:13:55.178Z,50.63
2018-06-08T17:15:48.122Z,50.63
2018-06-08T17:16:48.142Z,50.63
2018-06-08T17:18:41.116Z,50.63
2018-06-08T17:19:41.108Z,50.63
2018-06-08T17:21:34.069Z,56.25
2018-06-08T17:22:34.077Z,50.63
2018-06-08T17:24:27.042Z,56.25
2018-06-08T17:25:27.053Z,61.88
2018-06-08T17:27:20.000Z,61.88
2018-06-08T17:28:20.004Z,61.88
2018-06-08T17:30:13.451Z,50.63
2018-06-08T17:31:13.530Z,56.25
2018-06-08T17:33:07.425Z,50.63
2018-06-08T17:34:07.421Z,50.63
2018-06-08T17:36:00.368Z,50.63
2018-06-08T17:37:00.383Z,45.00
2018-06-08T17:38:53.355Z,45.00
2018-06-08T17:39:53.348Z,45.00
2018-06-08T17:41:46.284Z,45.00
2018-06-08T17:42:46.307Z,45.00
2018-06-08T17:44:39.267Z,50.63
2018-06-08T17:45:39.267Z,50.63
2018-06-08T17:47:32.235Z,50.63
2018-06-08T17:48:32.239Z,50.63
2018-06-08T17:50:25.180Z,50.63
2018-06-08T17:51:25.193Z,50.63
2018-06-08T17:53:18.149Z,45.00
2018-06-08T17:54:18.145Z,45.00
2018-06-08T17:56:11.079Z,50.63
2018-06-08T17:57:11.152Z,50.63
2018-06-08T17:59:04.058Z,50.63
2018-06-08T18:00:04.061Z,45.00
2018-06-08T18:01:57.003Z,45.00
2018-06-08T18:02:57.012Z,45.00
2018-06-08T18:04:49.975Z,39.38
2018-06-08T18:05:49.968Z,39.38
2018-06-08T18:07:42.940Z,33.75
2018-06-08T18:08:42.937Z,33.75
2018-06-08T18:10:35.881Z,33.75
2018-06-08T18:11:35.959Z,39.38
2018-06-08T18:13:28.855Z,39.38
2018-06-08T18:14:28.860Z,39.38
2018-06-08T18:16:21.826Z,33.75
2018-06-08T18:17:21.839Z,33.75
2018-06-08T18:19:15.288Z,33.75
2018-06-08T18:20:15.292Z,33.75
2018-06-08T18:22:08.275Z,33.75
2018-06-08T18:23:08.240Z,33.75
2018-06-08T18:25:01.200Z,33.75
2018-06-08T18:26:01.197Z,33.75
2018-06-08T18:27:54.161Z,33.75
2018-06-08T18:28:54.157Z,33.75
2018-06-08T18:30:47.095Z,33.75
2018-06-08T18:31:47.105Z,33.75
2018-06-08T18:33:40.063Z,33.75
2018-06-08T18:34:40.064Z,33.75
2018-06-08T18:36:32.993Z,28.13
2018-06-08T18:37:33.019Z,28.13
2018-06-08T18:39:25.967Z,28.13
2018-06-08T18:40:25.966Z,28.13
2018-06-08T18:42:18.911Z,28.13
2018-06-08T18:43:18.919Z,28.13
2018-06-08T18:45:11.882Z,28.13
2018-06-08T18:46:11.876Z,28.13
2018-06-08T18:48:04.829Z,28.13
2018-06-08T18:49:04.829Z,22.50
2018-06-08T18:50:57.769Z,22.50
2018-06-08T18:51:57.783Z,22.50
2018-06-08T18:53:50.739Z,22.50
2018-06-08T18:54:50.738Z,22.50
2018-06-08T18:56:43.679Z,22.50
2018-06-08T18:57:43.698Z,16.88
2018-06-08T18:59:36.659Z,16.88
2018-06-08T19:00:36.651Z,16.88
2018-06-08T19:02:29.585Z,16.88
2018-06-08T19:03:29.607Z,16.88
2018-06-08T19:05:22.564Z,16.88
2018-06-08T19:06:22.562Z,16.88
2018-06-08T19:08:16.520Z,16.88
2018-06-08T19:09:16.507Z,16.88
2018-06-08T19:11:09.462Z,16.88
2018-06-08T19:12:09.476Z,16.88
2018-06-08T19:14:02.429Z,16.88
2018-06-08T19:15:02.438Z,16.88
2018-06-08T19:16:55.372Z,11.25
2018-06-08T19:17:55.385Z,11.25
2018-06-08T19:19:48.347Z,11.25
2018-06-08T19:20:48.339Z,11.25
2018-06-08T19:22:41.273Z,5.63
2018-06-08T19:23:41.289Z,5.63
2018-06-08T19:25:38.624Z,5.63
2018-06-08T19:26:37.687Z,5.63
2018-06-08T19:28:28.702Z,5.63
2018-06-08T19:29:28.690Z,5.63
2018-06-08T19:31:21.624Z,5.63
2018-06-08T19:32:21.642Z,5.63
2018-06-08T19:34:14.597Z,5.63
2018-06-08T19:35:14.605Z,5.63
2018-06-08T19:37:07.536Z,5.63
2018-06-08T19:38:07.551Z,5.63
2018-06-08T19:40:00.512Z,0.00
2018-06-08T19:41:00.502Z,0.00
2018-06-08T19:42:53.438Z,0.00
2018-06-08T19:43:53.453Z,0.00
2018-06-08T19:45:46.408Z,0.00
2018-06-08T19:46:46.406Z,0.00
2018-06-08T19:48:39.360Z,0.00
2018-06-08T19:49:39.359Z,0.00
2018-06-08T19:51:32.294Z,0.00
2018-06-08T19:52:32.309Z,0.00
2018-06-08T19:54:25.262Z,0.00
2018-06-08T19:55:25.260Z,0.00
2018-06-08T19:57:18.200Z,0.00
2018-06-08T19:58:18.210Z,0.00
2018-06-08T20:00:11.161Z,0.00
2018-06-08T20:01:11.163Z,0.00
2018-06-08T20:03:04.098Z,0.00
2018-06-08T20:04:04.117Z,0.00
2018-06-08T20:05:57.069Z,0.00
2018-06-08T20:06:57.125Z,0.00
2018-06-08T20:08:50.023Z,0.00
2018-06-08T20:09:50.017Z,0.00
2018-06-08T20:11:42.951Z,0.00
2018-06-08T20:12:42.993Z,0.00
2018-06-08T20:14:35.924Z,0.00
2018-06-08T20:15:35.923Z,0.00
2018-06-08T20:17:28.856Z,0.00
2018-06-08T20:18:28.880Z,0.00
2018-06-08T20:20:21.831Z,0.00
2018-06-08T20:21:21.829Z,0.00
2018-06-08T20:23:14.773Z,0.00
2018-06-08T20:24:14.790Z,0.00
2018-06-08T20:26:07.740Z,0.00
2018-06-08T20:27:07.734Z,0.00
2018-06-08T20:29:00.694Z,0.00
2018-06-08T20:30:00.687Z,0.00